Time;durP1;ratioP1;P1;durP2;ratioP2;P2;SDS_P1;SDS_P2;PMS_P1;PMS_P2;Temp;Humidity;BMP_temperature;BMP_pressure;BME280_temperature;BME280_humidity;BME280_pressure;Samples;Min_cycle;Max_cycle;Signal;HPM_P1;HPM_P2
2024/03/12 00:00:19;;;;;;;7.45;1.08;;;7.60;99.90;;;;;;4452679;32;20080;-62
2024/03/12 00:02:46;;;;;;;1.73;1.12;;;7.60;99.90;;;;;;4454868;32;20076;-62
2024/03/12 00:05:14;;;;;;;2.62;1.45;;;7.60;99.90;;;;;;4454716;32;20604;-63
2024/03/12 00:07:42;;;;;;;1.85;1.20;;;7.60;99.90;;;;;;4453209;32;20060;-62
2024/03/12 00:10:09;;;;;;;1.33;1.23;;;7.40;99.90;;;;;;4454122;32;20556;-62
2024/03/12 00:12:36;;;;;;;0.80;0.80;;;7.40;99.90;;;;;;4453598;32;20084;-64
2024/03/12 00:15:04;;;;;;;0.80;0.80;;;7.40;99.90;;;;;;4455364;32;20052;-62
2024/03/12 00:17:32;;;;;;;1.37;1.27;;;7.50;99.90;;;;;;4454721;32;20505;-62
2024/03/12 00:19:59;;;;;;;0.62;0.62;;;7.40;99.90;;;;;;4454427;32;20060;-63
2024/03/12 00:22:25;;;;;;;0.60;0.60;;;7.30;99.90;;;;;;4455364;32;20115;-63
2024/03/12 00:24:50;;;;;;;0.80;0.80;;;7.30;99.90;;;;;;4453458;32;20748;-62
2024/03/12 00:27:18;;;;;;;1.15;1.05;;;7.40;99.90;;;;;;4451989;32;20073;-64
2024/03/12 00:29:45;;;;;;;5.50;1.25;;;7.40;99.90;;;;;;4450889;32;20322;-64
2024/03/12 00:32:12;;;;;;;3.72;1.15;;;7.40;99.90;;;;;;4452006;32;20069;-63
2024/03/12 00:34:40;;;;;;;1.02;0.57;;;7.30;99.90;;;;;;4453439;32;20064;-64
2024/03/12 00:37:09;;;;;;;1.02;0.77;;;7.10;99.90;;;;;;4457508;32;20126;-64
2024/03/12 00:39:35;;;;;;;1.73;1.25;;;7.00;99.90;;;;;;4455209;32;20073;-64
2024/03/12 00:42:02;;;;;;;0.82;0.82;;;7.00;99.90;;;;;;4455526;32;20084;-63
2024/03/12 00:44:30;;;;;;;1.02;0.98;;;7.10;99.90;;;;;;4456015;32;20093;-61
2024/03/12 00:46:56;;;;;;;2.10;1.60;;;7.20;99.90;;;;;;4456942;32;20512;-61
2024/03/12 00:49:21;;;;;;;0.73;0.73;;;6.90;99.90;;;;;;4457180;32;20073;-63
2024/03/12 00:51:50;;;;;;;1.45;0.82;;;6.80;99.90;;;;;;4456953;32;20084;-63
2024/03/12 00:54:15;;;;;;;0.80;0.77;;;6.80;99.90;;;;;;4456122;32;20081;-64
2024/03/12 00:56:41;;;;;;;2.22;1.40;;;6.80;99.90;;;;;;4454760;32;20077;-63
2024/03/12 00:59:07;;;;;;;1.40;0.90;;;6.90;99.90;;;;;;4448895;32;20118;-63
2024/03/12 01:01:34;;;;;;;0.43;0.43;;;6.90;99.90;;;;;;4456309;32;20130;-65
2024/03/12 01:04:00;;;;;;;2.05;1.30;;;6.70;99.90;;;;;;4454883;32;20073;-66
2024/03/12 01:06:26;;;;;;;3.28;2.00;;;6.70;99.90;;;;;;4454488;32;20127;-66
2024/03/12 01:08:52;;;;;;;0.50;0.50;;;6.70;99.90;;;;;;4456586;32;20107;-66
2024/03/12 01:11:17;;;;;;;0.62;0.62;;;6.80;99.90;;;;;;4446251;32;20131;-65
2024/03/12 01:13:44;;;;;;;1.83;1.15;;;6.80;99.90;;;;;;4456536;32;20056;-62
2024/03/12 01:16:10;;;;;;;0.60;0.60;;;6.80;99.90;;;;;;4454872;32;20089;-65
2024/03/12 01:18:35;;;;;;;2.00;0.90;;;6.70;99.90;;;;;;4455880;32;20076;-62
2024/03/12 01:21:02;;;;;;;0.57;0.57;;;6.60;99.90;;;;;;4456199;32;20122;-62
2024/03/12 01:23:28;;;;;;;0.65;0.65;;;6.40;99.90;;;;;;4456367;32;20073;-62
2024/03/12 01:25:54;;;;;;;2.62;1.02;;;6.50;99.90;;;;;;4454101;32;20124;-61
2024/03/12 01:28:20;;;;;;;1.67;1.58;;;6.50;99.90;;;;;;4454869;32;20073;-62
2024/03/12 01:30:46;;;;;;;0.60;0.60;;;6.50;99.90;;;;;;4454264;32;20718;-64
2024/03/12 01:33:12;;;;;;;1.05;0.95;;;6.50;99.90;;;;;;4455906;32;20307;-63
2024/03/12 01:35:38;;;;;;;1.75;1.30;;;6.50;99.90;;;;;;4457527;32;20069;-63
2024/03/12 01:38:04;;;;;;;0.65;0.60;;;6.60;99.90;;;;;;4457179;32;20072;-63
2024/03/12 01:40:30;;;;;;;5.87;1.62;;;6.50;99.90;;;;;;4453960;32;20134;-63
2024/03/12 01:43:01;;;;;;;2.35;1.62;;;6.40;99.90;;;;;;4454099;32;20093;-63
2024/03/12 01:45:28;;;;;;;12.25;1.58;;;6.30;99.90;;;;;;4455463;32;20085;-63
2024/03/12 01:47:56;;;;;;;1.05;1.05;;;6.40;99.90;;;;;;4456094;32;20119;-63
2024/03/12 01:50:24;;;;;;;1.23;1.12;;;6.50;99.90;;;;;;4456262;32;20512;-64
2024/03/12 01:52:56;;;;;;;1.08;1.02;;;6.50;99.90;;;;;;4455851;32;20064;-62
2024/03/12 01:55:22;;;;;;;4.60;1.40;;;6.40;99.90;;;;;;4456257;32;20135;-63
2024/03/12 01:57:48;;;;;;;0.47;0.47;;;6.40;99.90;;;;;;4456408;32;20089;-63
2024/03/12 02:00:15;;;;;;;1.23;1.12;;;6.40;99.90;;;;;;4455570;32;20078;-62
2024/03/12 02:02:42;;;;;;;1.65;1.00;;;6.40;99.90;;;;;;4457173;32;20410;-63
2024/03/12 02:05:10;;;;;;;2.40;1.50;;;6.50;99.90;;;;;;4454856;32;20415;-63
2024/03/12 02:07:37;;;;;;;1.55;1.23;;;6.50;99.90;;;;;;4454925;32;20061;-63
2024/03/12 02:10:04;;;;;;;2.03;0.77;;;6.60;99.90;;;;;;4454702;32;20442;-63
2024/03/12 02:12:31;;;;;;;0.65;0.65;;;6.60;99.90;;;;;;4456644;32;20106;-64
2024/03/12 02:15:03;;;;;;;3.10;1.40;;;6.60;99.90;;;;;;4456667;32;20163;-64
2024/03/12 02:17:29;;;;;;;0.65;0.65;;;6.60;99.90;;;;;;4455246;32;20060;-65
2024/03/12 02:19:54;;;;;;;1.27;0.93;;;6.50;99.90;;;;;;4457203;32;20076;-64
2024/03/12 02:22:20;;;;;;;2.00;0.77;;;6.40;99.90;;;;;;4457107;32;20072;-64
2024/03/12 02:24:46;;;;;;;0.75;0.75;;;6.50;99.90;;;;;;4456503;32;20111;-65
2024/03/12 02:27:12;;;;;;;0.82;0.73;;;6.60;99.90;;;;;;4455751;32;20482;-63
2024/03/12 02:29:38;;;;;;;1.30;1.20;;;6.60;99.90;;;;;;4455954;32;20068;-64
2024/03/12 02:32:04;;;;;;;1.12;0.95;;;6.60;99.90;;;;;;4455103;32;20107;-63
2024/03/12 02:34:29;;;;;;;6.35;1.80;;;6.40;99.90;;;;;;4454592;32;20080;-63
2024/03/12 02:36:55;;;;;;;0.88;0.88;;;6.40;99.90;;;;;;4455861;32;20069;-63
2024/03/12 02:39:21;;;;;;;2.33;1.52;;;6.40;99.90;;;;;;4453958;32;20069;-63
2024/03/12 02:41:48;;;;;;;1.55;0.90;;;6.50;99.90;;;;;;4453254;32;20064;-64
2024/03/12 02:44:13;;;;;;;0.70;0.70;;;6.60;99.90;;;;;;4451506;32;21090;-64
2024/03/12 02:46:40;;;;;;;0.65;0.65;;;6.60;99.90;;;;;;4455000;32;20139;-63
2024/03/12 02:49:07;;;;;;;1.75;1.27;;;6.60;99.90;;;;;;4455009;32;20064;-63
2024/03/12 02:51:33;;;;;;;0.93;0.93;;;6.50;99.90;;;;;;4455867;32;20068;-65
2024/03/12 02:53:58;;;;;;;0.60;0.60;;;6.40;99.90;;;;;;4454290;32;20085;-63
2024/03/12 02:56:24;;;;;;;0.98;0.88;;;6.40;99.90;;;;;;4454739;32;20130;-62
2024/03/12 02:58:49;;;;;;;1.85;1.17;;;6.30;99.90;;;;;;4454292;32;20056;-62
2024/03/12 03:01:15;;;;;;;0.73;0.70;;;6.30;99.90;;;;;;4454325;32;20073;-62
2024/03/12 03:03:41;;;;;;;1.20;0.90;;;6.30;99.90;;;;;;4454115;32;20077;-63
2024/03/12 03:06:07;;;;;;;1.10;1.00;;;6.40;99.90;;;;;;4455453;32;20057;-64
2024/03/12 03:08:32;;;;;;;3.03;1.85;;;6.30;99.90;;;;;;4454246;32;20142;-64
2024/03/12 03:10:58;;;;;;;2.25;1.12;;;6.30;99.90;;;;;;4454617;32;20429;-62
2024/03/12 03:13:25;;;;;;;0.80;0.80;;;6.20;99.90;;;;;;4454134;32;20077;-62
2024/03/12 03:15:51;;;;;;;7.75;2.92;;;6.20;99.90;;;;;;4454522;32;20442;-63
2024/03/12 03:18:16;;;;;;;1.00;0.95;;;6.20;99.90;;;;;;4453901;32;20060;-62
2024/03/12 03:20:42;;;;;;;0.80;0.80;;;6.30;99.90;;;;;;4453867;32;20107;-62
2024/03/12 03:23:07;;;;;;;0.65;0.65;;;6.30;99.90;;;;;;4453516;32;20132;-66
2024/03/12 03:25:33;;;;;;;2.37;1.60;;;6.30;99.90;;;;;;4452799;32;20108;-66
2024/03/12 03:27:59;;;;;;;1.00;0.93;;;6.30;99.90;;;;;;4452734;32;20072;-66
2024/03/12 03:30:24;;;;;;;3.83;1.12;;;6.20;99.90;;;;;;4454639;32;20076;-66
2024/03/12 03:32:50;;;;;;;0.77;0.77;;;6.10;99.90;;;;;;4455257;32;20073;-62
2024/03/12 03:35:17;;;;;;;0.95;0.95;;;6.10;99.90;;;;;;4447894;32;20580;-63
2024/03/12 03:37:43;;;;;;;2.42;1.10;;;6.10;99.90;;;;;;4454540;32;20495;-63
2024/03/12 03:40:10;;;;;;;1.40;1.23;;;6.20;99.90;;;;;;4453387;32;20115;-63
2024/03/12 03:42:37;;;;;;;2.60;1.25;;;6.20;99.90;;;;;;4454104;32;20544;-66
2024/03/12 03:45:03;;;;;;;0.82;0.82;;;6.10;99.90;;;;;;4454042;32;20431;-66
2024/03/12 03:47:34;;;;;;;3.47;1.75;;;5.90;99.90;;;;;;4453443;32;20085;-66
2024/03/12 03:50:02;;;;;;;0.57;0.57;;;5.90;99.90;;;;;;4454156;32;20592;-66
2024/03/12 03:52:28;;;;;;;2.00;0.75;;;6.00;99.90;;;;;;4455573;32;20073;-66
2024/03/12 03:54:53;;;;;;;0.75;0.75;;;5.90;99.90;;;;;;4454411;32;20093;-66
2024/03/12 03:57:19;;;;;;;2.05;1.33;;;5.90;99.90;;;;;;4455096;32;20425;-68
2024/03/12 03:59:46;;;;;;;1.40;1.30;;;5.90;99.90;;;;;;4452620;32;20072;-67
2024/03/12 04:02:12;;;;;;;1.50;1.40;;;5.80;99.90;;;;;;4451796;32;20934;-66
2024/03/12 04:04:38;;;;;;;4.47;2.15;;;5.80;99.90;;;;;;4452504;32;20513;-66
2024/03/12 04:07:04;;;;;;;0.98;0.90;;;5.80;99.90;;;;;;4452465;32;20068;-67
2024/03/12 04:09:30;;;;;;;1.05;1.00;;;5.80;99.90;;;;;;4453208;32;20081;-67
2024/03/12 04:11:56;;;;;;;2.40;1.35;;;5.80;99.90;;;;;;4451391;32;20072;-67
2024/03/12 04:14:23;;;;;;;2.42;1.02;;;5.70;99.90;;;;;;4454165;32;20060;-67
2024/03/12 04:16:48;;;;;;;0.70;0.70;;;5.70;99.90;;;;;;4452747;32;20286;-67
2024/03/12 04:19:14;;;;;;;1.25;1.15;;;5.70;99.90;;;;;;4454442;32;20060;-66
2024/03/12 04:21:40;;;;;;;2.35;1.33;;;5.70;99.90;;;;;;4453480;32;20552;-66
2024/03/12 04:24:06;;;;;;;0.98;0.93;;;5.70;99.90;;;;;;4451834;32;20073;-66
2024/03/12 04:26:32;;;;;;;1.33;1.23;;;5.70;99.90;;;;;;4454594;32;20140;-65
2024/03/12 04:28:57;;;;;;;1.37;1.30;;;5.80;99.90;;;;;;4453187;32;20084;-63
2024/03/12 04:31:25;;;;;;;0.60;0.60;;;6.10;99.90;;;;;;4453149;32;20466;-64
2024/03/12 04:33:52;;;;;;;1.02;1.02;;;6.10;99.90;;;;;;4453206;32;20056;-65
2024/03/12 04:36:22;;;;;;;2.22;1.48;;;6.20;99.90;;;;;;4451858;32;20064;-66
2024/03/12 04:38:49;;;;;;;0.68;0.68;;;6.30;99.90;;;;;;4452042;32;20436;-65
2024/03/12 04:41:17;;;;;;;1.33;1.00;;;6.30;99.90;;;;;;4455220;32;20453;-65
2024/03/12 04:43:42;;;;;;;3.15;1.40;;;6.30;99.90;;;;;;4453144;32;20052;-63
2024/03/12 04:46:09;;;;;;;1.17;1.02;;;6.40;99.90;;;;;;4454259;32;20081;-63
2024/03/12 04:48:35;;;;;;;1.98;1.37;;;6.30;99.90;;;;;;4454674;32;20422;-64
2024/03/12 04:51:01;;;;;;;1.08;0.95;;;6.30;99.90;;;;;;4454610;32;20072;-63
2024/03/12 04:53:27;;;;;;;4.03;1.40;;;6.30;99.90;;;;;;4452903;32;20556;-62
2024/03/12 04:55:52;;;;;;;0.50;0.47;;;6.40;99.90;;;;;;4453391;32;20440;-62
2024/03/12 04:58:18;;;;;;;0.57;0.57;;;6.30;99.90;;;;;;4452996;32;20064;-62
2024/03/12 05:00:43;;;;;;;0.57;0.57;;;6.40;99.90;;;;;;4454154;32;20520;-62
2024/03/12 05:03:09;;;;;;;0.30;0.30;;;6.40;99.90;;;;;;4452274;32;20403;-64
2024/03/12 05:05:34;;;;;;;0.60;0.60;;;6.50;99.90;;;;;;4455010;32;20081;-60
2024/03/12 05:07:59;;;;;;;1.27;1.20;;;6.40;99.90;;;;;;4454053;32;20073;-63
2024/03/12 05:10:26;;;;;;;1.27;1.17;;;6.40;99.90;;;;;;4453587;32;20115;-61
2024/03/12 05:12:51;;;;;;;1.20;0.73;;;6.30;99.90;;;;;;4451651;32;20520;-62
2024/03/12 05:15:17;;;;;;;1.83;1.27;;;6.30;99.90;;;;;;4453273;32;20061;-62
2024/03/12 05:17:45;;;;;;;0.75;0.70;;;6.30;99.90;;;;;;4451736;32;20085;-65
2024/03/12 05:20:14;;;;;;;0.75;0.75;;;6.40;99.90;;;;;;4452060;32;20081;-66
2024/03/12 05:22:40;;;;;;;0.60;0.60;;;6.30;99.90;;;;;;4447926;32;20532;-65
2024/03/12 05:25:09;;;;;;;2.20;1.67;;;6.30;99.90;;;;;;4454843;32;20069;-66
2024/03/12 05:27:37;;;;;;;1.08;0.75;;;6.30;99.90;;;;;;4457002;32;20065;-66
2024/03/12 05:30:10;;;;;;;0.40;0.40;;;6.20;99.90;;;;;;4453373;32;20069;-67
2024/03/12 05:32:41;;;;;;;2.97;1.25;;;6.20;99.90;;;;;;4452793;32;20057;-66
2024/03/12 05:35:07;;;;;;;0.68;0.68;;;6.20;99.90;;;;;;4453372;32;20092;-66
2024/03/12 05:38:33;;;;;;;0.50;0.50;;;6.10;99.90;;;;;;4454674;32;20115;-66
2024/03/12 05:40:18;;;;;;;0.55;0.55;;;6.20;99.90;;;;;;4445829;32;20080;-66
2024/03/12 05:48:15;;;;;;;1.05;0.68;;;6.10;99.90;;;;;;4448970;32;20072;-66
2024/03/12 05:50:41;;;;;;;0.50;0.50;;;6.20;99.90;;;;;;4454395;32;20093;-66
2024/03/12 05:53:08;;;;;;;0.40;0.40;;;6.30;99.90;;;;;;4450419;32;20599;-65
2024/03/12 05:55:34;;;;;;;0.57;0.57;;;6.30;99.90;;;;;;4454676;32;20061;-68
2024/03/12 05:58:00;;;;;;;0.70;0.70;;;6.30;99.90;;;;;;4451587;32;20142;-65
2024/03/12 06:00:25;;;;;;;0.70;0.70;;;6.30;99.90;;;;;;4450540;32;20160;-66
2024/03/12 06:02:51;;;;;;;0.50;0.50;;;6.30;99.90;;;;;;4454383;32;20451;-66
2024/03/12 06:05:16;;;;;;;4.68;1.73;;;6.30;99.90;;;;;;4452827;32;20501;-66
2024/03/12 06:07:44;;;;;;;0.70;0.70;;;6.30;99.90;;;;;;4439559;32;20057;-64
2024/03/12 06:10:11;;;;;;;0.95;0.70;;;6.30;99.90;;;;;;4452817;32;20089;-66
2024/03/12 06:12:37;;;;;;;0.55;0.55;;;6.40;99.90;;;;;;4451860;32;20124;-65
2024/03/12 06:15:06;;;;;;;0.40;0.40;;;6.40;99.90;;;;;;4440788;32;20113;-66
2024/03/12 06:17:32;;;;;;;0.73;0.73;;;6.50;99.90;;;;;;4453467;32;20442;-66
2024/03/12 06:19:58;;;;;;;0.43;0.43;;;6.50;99.90;;;;;;4448955;32;20469;-66
2024/03/12 06:22:24;;;;;;;0.88;0.88;;;6.50;99.90;;;;;;4440832;32;20081;-66
2024/03/12 06:24:50;;;;;;;0.50;0.50;;;6.60;99.90;;;;;;4451896;32;20122;-65
2024/03/12 06:27:16;;;;;;;0.60;0.60;;;6.60;99.90;;;;;;4430622;32;20423;-65
2024/03/12 06:29:42;;;;;;;4.47;1.00;;;6.70;99.90;;;;;;4440080;32;20080;-66
2024/03/12 06:32:08;;;;;;;0.68;0.52;;;6.70;99.90;;;;;;4446953;32;20088;-66
2024/03/12 06:34:35;;;;;;;0.88;0.82;;;6.70;99.90;;;;;;4437312;32;20383;-65
2024/03/12 06:37:00;;;;;;;2.78;1.42;;;6.60;99.90;;;;;;4442501;32;20076;-67
2024/03/12 06:39:35;;;;;;;1.45;1.27;;;6.80;99.90;;;;;;4441756;32;20450;-64
2024/03/12 06:42:02;;;;;;;1.12;1.02;;;6.90;99.90;;;;;;4443722;32;21030;-64
2024/03/12 06:44:28;;;;;;;0.70;0.70;;;6.90;99.90;;;;;;4442723;32;20381;-66
2024/03/12 06:46:55;;;;;;;0.90;0.82;;;7.00;99.90;;;;;;4440043;32;20069;-65
2024/03/12 06:49:20;;;;;;;0.70;0.70;;;7.00;99.90;;;;;;4440167;32;20580;-64
2024/03/12 06:51:47;;;;;;;14.80;3.10;;;7.10;99.90;;;;;;4435484;32;20172;-66
2024/03/12 06:54:13;;;;;;;0.50;0.50;;;7.20;99.90;;;;;;4434992;32;20076;-66
2024/03/12 06:56:42;;;;;;;2.37;1.15;;;7.30;99.90;;;;;;4429773;32;20996;-64
2024/03/12 06:59:10;;;;;;;0.80;0.60;;;7.40;99.90;;;;;;4421323;32;20142;-65
2024/03/12 07:01:40;;;;;;;0.82;0.82;;;7.40;99.90;;;;;;4426332;32;20135;-65
2024/03/12 07:04:09;;;;;;;1.67;1.58;;;7.30;99.90;;;;;;4417395;32;20101;-66
2024/03/12 07:06:36;;;;;;;2.15;1.15;;;7.20;99.90;;;;;;4424938;32;20196;-66
2024/03/12 07:09:03;;;;;;;0.70;0.70;;;7.20;99.90;;;;;;4428530;32;20371;-65
2024/03/12 07:11:29;;;;;;;2.08;1.58;;;7.00;99.90;;;;;;4428502;32;20135;-65
2024/03/12 07:14:02;;;;;;;1.73;1.17;;;7.00;99.90;;;;;;4433876;32;20621;-65
2024/03/12 07:16:28;;;;;;;1.10;1.00;;;7.20;99.90;;;;;;4434659;32;20076;-64
2024/03/12 07:18:55;;;;;;;1.05;0.88;;;7.20;99.90;;;;;;4430870;32;20168;-66
2024/03/12 07:21:22;;;;;;;1.15;1.08;;;7.40;99.90;;;;;;4431102;32;20077;-65
2024/03/12 07:23:49;;;;;;;0.50;0.50;;;7.50;99.90;;;;;;4436498;32;20818;-66
2024/03/12 07:26:15;;;;;;;1.20;1.10;;;7.60;99.90;;;;;;4438558;32;20092;-66
2024/03/12 07:28:42;;;;;;;1.00;0.95;;;7.70;99.90;;;;;;4434419;32;20487;-66
2024/03/12 07:31:08;;;;;;;0.80;0.80;;;7.80;99.90;;;;;;4425882;32;20073;-64
2024/03/12 07:33:35;;;;;;;2.05;1.65;;;7.90;99.90;;;;;;4431961;32;20068;-65
2024/03/12 07:36:04;;;;;;;0.60;0.60;;;7.90;99.90;;;;;;4432361;32;20172;-64
2024/03/12 07:38:29;;;;;;;0.62;0.55;;;7.90;99.90;;;;;;4414717;32;20081;-66
2024/03/12 07:40:55;;;;;;;0.40;0.40;;;8.00;99.90;;;;;;4423960;32;20629;-66
2024/03/12 07:43:20;;;;;;;0.80;0.80;;;8.00;99.90;;;;;;4414894;32;20697;-65
2024/03/12 07:45:47;;;;;;;0.45;0.45;;;8.10;99.90;;;;;;4429204;32;20705;-65
2024/03/12 07:48:14;;;;;;;1.33;1.12;;;8.20;99.90;;;;;;4421796;32;20072;-62
2024/03/12 07:50:42;;;;;;;1.27;1.17;;;8.30;99.90;;;;;;4429984;32;20085;-65
2024/03/12 07:53:09;;;;;;;0.82;0.82;;;8.40;99.90;;;;;;4431842;32;20113;-65
2024/03/12 07:55:35;;;;;;;0.62;0.62;;;8.50;99.90;;;;;;4430303;32;21011;-65
2024/03/12 07:58:02;;;;;;;3.30;0.68;;;8.60;99.90;;;;;;4428577;32;20093;-62
2024/03/12 08:00:29;;;;;;;6.75;1.85;;;8.70;99.90;;;;;;4434673;32;20089;-63
2024/03/12 08:02:55;;;;;;;0.70;0.55;;;8.70;99.90;;;;;;4427007;32;20556;-63
2024/03/12 08:05:21;;;;;;;0.93;0.85;;;8.80;99.90;;;;;;4426132;32;20130;-63
2024/03/12 08:07:46;;;;;;;0.60;0.60;;;8.90;99.90;;;;;;4422131;32;20979;-65
2024/03/12 08:10:12;;;;;;;1.95;0.88;;;9.00;99.90;;;;;;4424270;32;20140;-62
2024/03/12 08:12:39;;;;;;;0.47;0.47;;;9.30;99.90;;;;;;4419630;32;20603;-65
2024/03/12 08:15:06;;;;;;;0.95;0.85;;;9.40;99.90;;;;;;4409801;32;20104;-64
2024/03/12 08:17:32;;;;;;;0.85;0.85;;;9.40;99.90;;;;;;4420991;32;20785;-65
2024/03/12 08:19:58;;;;;;;0.88;0.88;;;9.60;99.90;;;;;;4422244;32;20097;-64
2024/03/12 08:22:25;;;;;;;0.68;0.68;;;9.70;99.90;;;;;;4417609;32;20126;-64
2024/03/12 08:24:50;;;;;;;0.37;0.37;;;9.80;99.90;;;;;;4434784;32;20077;-64
2024/03/12 08:27:18;;;;;;;0.32;0.32;;;9.80;99.90;;;;;;4428175;32;20090;-62
2024/03/12 08:29:44;;;;;;;1.05;0.80;;;9.90;99.90;;;;;;4420029;32;20554;-63
2024/03/12 08:32:09;;;;;;;0.60;0.60;;;10.00;99.90;;;;;;4411954;32;20635;-64
2024/03/12 08:34:38;;;;;;;0.80;0.80;;;10.10;99.90;;;;;;4422851;32;20105;-64
2024/03/12 08:37:05;;;;;;;0.80;0.80;;;10.20;99.90;;;;;;4434090;32;20096;-63
2024/03/12 08:39:31;;;;;;;0.45;0.45;;;10.20;99.90;;;;;;4431935;32;20078;-64
2024/03/12 08:41:56;;;;;;;0.68;0.68;;;10.40;99.90;;;;;;4430087;32;20092;-64
2024/03/12 08:44:22;;;;;;;3.65;0.95;;;10.50;99.90;;;;;;4426051;32;20080;-64
2024/03/12 08:46:49;;;;;;;0.57;0.57;;;10.60;99.90;;;;;;4426146;32;20077;-65
2024/03/12 08:49:15;;;;;;;0.50;0.50;;;10.70;99.90;;;;;;4424363;32;20140;-66
2024/03/12 08:51:41;;;;;;;0.65;0.65;;;10.70;99.90;;;;;;4389701;32;20395;-64
2024/03/12 08:54:08;;;;;;;1.02;0.95;;;10.70;99.90;;;;;;4410891;32;20170;-64
2024/03/12 08:56:36;;;;;;;0.40;0.40;;;10.80;99.90;;;;;;4428421;32;20982;-65
2024/03/12 08:59:01;;;;;;;0.50;0.50;;;11.00;99.90;;;;;;4427640;32;20218;-65
2024/03/12 09:01:27;;;;;;;0.68;0.68;;;10.90;99.90;;;;;;4426410;32;20366;-63
2024/03/12 09:03:53;;;;;;;0.90;0.77;;;11.00;99.90;;;;;;4432424;32;20084;-64
2024/03/12 09:06:19;;;;;;;0.40;0.40;;;10.90;99.90;;;;;;4433650;32;21644;-64
2024/03/12 09:08:46;;;;;;;1.40;0.88;;;10.80;99.90;;;;;;4432011;32;20139;-64
2024/03/12 09:11:17;;;;;;;0.73;0.73;;;11.00;99.90;;;;;;4427797;32;21522;-63
2024/03/12 09:13:44;;;;;;;;;;;11.10;99.90;;;;;;4420769;32;20092;-63
2024/03/12 09:16:12;;;;;;;0.60;0.60;;;11.20;99.90;;;;;;4417631;32;19957;-61
2024/03/12 09:18:40;;;;;;;0.45;0.45;;;11.40;99.90;;;;;;4425429;32;20777;-63
2024/03/12 09:21:05;;;;;;;0.70;0.70;;;11.60;99.90;;;;;;4420460;32;20564;-64
2024/03/12 09:23:31;;;;;;;0.75;0.60;;;11.70;99.90;;;;;;4417946;32;20248;-66
2024/03/12 09:25:57;;;;;;;0.40;0.40;;;12.00;99.90;;;;;;4415790;32;21683;-64
2024/03/12 09:28:22;;;;;;;2.87;1.05;;;12.10;99.90;;;;;;4425640;32;20073;-65
2024/03/12 09:30:48;;;;;;;0.60;0.45;;;12.30;99.90;;;;;;4422919;32;20536;-65
2024/03/12 09:33:14;;;;;;;0.80;0.65;;;12.50;99.90;;;;;;4421643;32;20131;-63
2024/03/12 09:35:47;;;;;;;1.33;0.60;;;12.70;99.90;;;;;;4431111;32;20080;-63
2024/03/12 09:38:15;;;;;;;1.35;0.60;;;12.80;99.90;;;;;;4425291;32;20097;-63
2024/03/12 09:40:42;;;;;;;0.57;0.57;;;12.90;99.90;;;;;;4418027;32;20097;-63
2024/03/12 09:43:11;;;;;;;0.68;0.68;;;13.00;99.90;;;;;;4416942;32;20322;-64
2024/03/12 09:45:39;;;;;;;0.37;0.37;;;13.10;99.90;;;;;;4412563;32;20182;-66
2024/03/12 09:48:05;;;;;;;0.45;0.45;;;13.20;99.90;;;;;;4412634;32;20073;-64
2024/03/12 09:50:31;;;;;;;2.17;0.60;;;13.50;99.90;;;;;;4423001;32;20109;-62
2024/03/12 09:52:59;;;;;;;0.68;0.57;;;13.60;99.90;;;;;;4412143;32;20113;-67
2024/03/12 09:55:25;;;;;;;0.52;0.52;;;13.70;99.90;;;;;;4407269;32;20436;-64
2024/03/12 09:57:51;;;;;;;0.55;0.55;;;13.90;99.90;;;;;;4418527;32;20093;-64
2024/03/12 10:00:22;;;;;;;0.85;0.85;;;14.20;99.90;;;;;;4414506;32;20466;-65
2024/03/12 10:02:49;;;;;;;1.17;1.08;;;14.30;99.90;;;;;;4411336;32;20857;-62
2024/03/12 10:05:22;;;;;;;0.62;0.47;;;14.50;99.90;;;;;;4418329;32;20088;-63
2024/03/12 10:08:08;;;;;;;0.45;0.45;;;14.40;99.90;;;;;;4414453;32;20774;-63
2024/03/12 10:10:38;;;;;;;0.68;0.68;;;14.10;99.90;;;;;;4422176;32;20796;-67
2024/03/12 10:13:04;;;;;;;0.60;0.60;;;14.30;99.90;;;;;;4421422;32;20768;-65
2024/03/12 10:15:30;;;;;;;0.40;0.40;;;14.60;99.90;;;;;;4420672;32;21400;-62
2024/03/12 10:17:59;;;;;;;0.50;0.50;;;14.90;99.90;;;;;;4418058;32;20417;-65
2024/03/12 10:20:26;;;;;;;1.08;0.85;;;14.80;99.90;;;;;;4422151;32;20719;-63
2024/03/12 10:23:09;;;;;;;0.60;0.60;;;14.90;99.90;;;;;;4430108;32;20093;-63
2024/03/12 10:25:36;;;;;;;0.70;0.70;;;14.90;99.90;;;;;;4401810;32;20426;-65
2024/03/12 10:28:02;;;;;;;0.40;0.40;;;14.90;99.90;;;;;;4411839;32;20785;-64
2024/03/12 10:30:28;;;;;;;0.88;0.68;;;15.10;99.90;;;;;;4411853;32;20093;-65
2024/03/12 10:32:55;;;;;;;0.40;0.40;;;15.30;99.90;;;;;;4410528;32;20148;-65
2024/03/12 10:35:21;;;;;;;0.40;0.40;;;15.40;99.90;;;;;;4404043;32;20196;-65
2024/03/12 10:37:50;;;;;;;0.43;0.43;;;15.40;99.90;;;;;;4412965;32;20098;-64
2024/03/12 10:40:19;;;;;;;4.05;0.73;;;15.50;99.90;;;;;;4409986;32;20227;-64
2024/03/12 10:43:01;;;;;;;0.40;0.40;;;15.60;99.90;;;;;;4419210;32;20548;-63
2024/03/12 10:45:29;;;;;;;0.50;0.50;;;15.30;99.90;;;;;;4421331;32;20586;-63
2024/03/12 10:47:56;;;;;;;0.57;0.57;;;15.30;99.90;;;;;;4424063;32;20089;-62
2024/03/12 10:50:24;;;;;;;0.50;0.50;;;15.30;99.90;;;;;;4426144;32;21223;-64
2024/03/12 10:52:54;;;;;;;0.40;0.40;;;15.40;99.90;;;;;;4424175;32;20599;-65
2024/03/12 10:55:21;;;;;;;0.47;0.47;;;15.40;99.90;;;;;;4408120;32;20088;-65
2024/03/12 10:57:49;;;;;;;0.40;0.40;;;15.20;99.90;;;;;;4413004;32;20756;-65
2024/03/12 11:00:20;;;;;;;0.50;0.50;;;15.20;99.90;;;;;;4413039;32;20370;-66
2024/03/12 11:02:48;;;;;;;0.40;0.40;;;15.40;99.90;;;;;;4417908;32;20088;-66
2024/03/12 11:05:18;;;;;;;0.50;0.50;;;15.40;99.90;;;;;;4418979;32;20109;-65
2024/03/12 11:07:44;;;;;;;0.43;0.43;;;15.60;99.90;;;;;;4426525;32;20177;-65
2024/03/12 11:10:10;;;;;;;0.40;0.40;;;15.70;99.90;;;;;;4411438;32;20076;-65
2024/03/12 11:12:37;;;;;;;0.50;0.50;;;15.80;99.90;;;;;;4407038;32;21027;-63
2024/03/12 11:15:02;;;;;;;0.45;0.45;;;15.60;99.90;;;;;;4412338;32;20552;-65
2024/03/12 11:17:31;;;;;;;0.43;0.43;;;15.70;99.90;;;;;;4407719;32;20081;-66
2024/03/12 11:19:58;;;;;;;1.20;1.10;;;15.60;99.90;;;;;;4417843;32;20129;-66
2024/03/12 11:22:25;;;;;;;0.32;0.32;;;15.70;99.90;;;;;;4406063;32;20117;-66
2024/03/12 11:24:51;;;;;;;0.52;0.52;;;16.00;99.90;;;;;;4423299;32;20064;-65
2024/03/12 11:27:24;;;;;;;0.40;0.40;;;16.20;99.90;;;;;;4428296;32;20845;-66
2024/03/12 11:30:03;;;;;;;0.60;0.60;;;16.50;99.90;;;;;;4424879;32;21523;-66
2024/03/12 11:32:50;;;;;;;0.40;0.40;;;16.90;99.90;;;;;;4428803;32;20176;-66
2024/03/12 11:35:21;;;;;;;0.40;0.40;;;17.10;99.90;;;;;;4423032;32;20204;-66
2024/03/12 11:37:47;;;;;;;;;;;16.90;99.90;;;;;;4433371;32;20693;-66
2024/03/12 11:40:36;;;;;;;0.50;0.50;;;16.90;99.90;;;;;;4428378;32;20071;-66
2024/03/12 11:43:02;;;;;;;0.37;0.37;;;17.20;99.90;;;;;;4419768;32;20714;-66
2024/03/12 11:45:45;;;;;;;1.27;0.82;;;17.60;99.90;;;;;;4425611;32;20109;-65
2024/03/12 11:48:13;;;;;;;1.02;0.75;;;17.60;99.90;;;;;;4420494;32;20345;-66
2024/03/12 11:50:41;;;;;;;0.60;0.50;;;17.10;99.90;;;;;;4425349;32;20520;-66
2024/03/12 11:53:11;;;;;;;0.40;0.40;;;16.60;99.90;;;;;;4356391;32;2159678;-61
2024/03/12 11:55:59;;;;;;;0.40;0.40;;;16.70;99.90;;;;;;4421685;32;20118;-65
2024/03/12 11:58:32;;;;;;;0.45;0.45;;;17.20;99.90;;;;;;4420496;32;20212;-62
2024/03/12 12:00:59;;;;;;;1.95;0.60;;;17.80;99.90;;;;;;4428450;32;20805;-63
2024/03/12 12:03:24;;;;;;;0.30;0.30;;;17.90;99.90;;;;;;4416601;32;20093;-65
2024/03/12 12:05:50;;;;;;;0.50;0.50;;;18.00;99.90;;;;;;4422149;32;20121;-65
2024/03/12 12:08:18;;;;;;;0.60;0.60;;;17.50;99.90;;;;;;4419035;32;20116;-65
2024/03/12 12:11:11;;;;;;;0.68;0.62;;;17.10;99.90;;;;;;4415971;32;20202;-65
2024/03/12 12:13:40;;;;;;;0.80;0.77;;;16.80;99.90;;;;;;4427164;32;20584;-65
2024/03/12 12:16:05;;;;;;;0.68;0.68;;;16.60;99.90;;;;;;4433599;32;20092;-65
2024/03/12 12:18:34;;;;;;;0.52;0.52;;;17.10;99.90;;;;;;4426082;32;20084;-65
2024/03/12 12:21:17;;;;;;;0.37;0.37;;;17.60;99.90;;;;;;4429210;32;20119;-65
2024/03/12 12:23:44;;;;;;;5.57;1.37;;;18.20;99.90;;;;;;4426973;32;20073;-65
2024/03/12 12:26:12;;;;;;;0.57;0.57;;;18.30;99.90;;;;;;4422912;32;20129;-65
2024/03/12 12:28:39;;;;;;;0.68;0.68;;;18.80;99.90;;;;;;4414218;32;20085;-64
2024/03/12 12:31:09;;;;;;;0.40;0.40;;;19.20;99.90;;;;;;4417218;32;20952;-64
2024/03/12 12:33:38;;;;;;;2.90;0.80;;;19.60;99.90;;;;;;4422057;32;20090;-64
2024/03/12 12:36:08;;;;;;;0.55;0.55;;;20.00;99.90;;;;;;4421741;32;20256;-65
2024/03/12 12:38:36;;;;;;;0.33;0.20;;;20.00;99.20;;;;;;4422605;32;20069;-65
2024/03/12 12:41:02;;;;;;;0.30;0.30;;;19.90;98.90;;;;;;4427870;32;20173;-65
2024/03/12 12:43:32;;;;;;;0.60;0.52;;;19.20;99.60;;;;;;4415465;32;20130;-65
2024/03/12 12:45:59;;;;;;;2.10;0.60;;;18.60;99.90;;;;;;4427530;32;20096;-65
2024/03/12 12:48:27;;;;;;;0.40;0.40;;;18.20;99.90;;;;;;4420175;32;20208;-65
2024/03/12 12:50:54;;;;;;;0.40;0.40;;;17.90;99.90;;;;;;4421923;32;20085;-64
2024/03/12 12:53:21;;;;;;;0.40;0.40;;;17.50;99.90;;;;;;4427604;32;20474;-64
2024/03/12 12:55:53;;;;;;;1.40;1.27;;;17.30;99.90;;;;;;4420803;32;20525;-66
2024/03/12 12:58:24;;;;;;;1.33;0.80;;;17.80;99.90;;;;;;4424393;32;20072;-65